Check out our new PWSWeather beta!
PWSweather.com
Personal Weather Stations
Station Observations
270882
Flassian, LimouxFR 11300

FlassianLimouxFR 11300

Lat: 43.071798, Lon: 2.217292

Elevation: 165

Station Type: Oregon WMR 200

http://www.meteolimoux.fr

Latest ConditionsUpdated 11:57:11 AM GMT+01:01 Wednesday, Feb 26, 2020
Currently Today's Max Today's Min Today's Average
Temperature 44.4°F6.9°C 50.5°F10.3°C 44.4°F6.9°C 48.0°F8.9°C
Dew Point 38.3°F3.5°C 42.8°F6.0°C 34.5°F1.4°C 38.3°F3.5°C
Winds 12.3 mph NW19.8 kmh NW 18.8 mph -30.3 kmh - - 9.5 mph 15.3 kmh
Wind Gusts 30.0 mph48.3 kmh 37.6 mph60.5 kmh - -
Humidity 79% 85% 54% 69%
Pressure 30.07 in1018.3 mb 30.07 in1018.3 mb 29.96 in1014.6 mb -
Precipitation - 0.21 in5.3 mm - -
Hour Temp Dew Point Humidity Winds Wind Gusts Pressure Precip Precip Rate Daily Precip Total
11:57 AM 44.4°F6.9°C 38.3°F3.5°C 79% 12.3 mph NW19.8 kmh NW 30.0 mph48.3 kmh 30.07 in1018.3 mb - 0.07 in1.8 mm 0.21 in5.3 mm
11:52 AM 44.6°F7.0°C 38.5°F3.6°C 79% 12.5 mph WNW20.1 kmh WNW 25.5 mph41.0 kmh 30.04 in1017.3 mb - 0.07 in1.8 mm 0.21 in5.3 mm
11:47 AM 44.8°F7.1°C 38.3°F3.5°C 78% 13.0 mph WNW20.9 kmh WNW 30.0 mph48.3 kmh 30.04 in1017.3 mb - 0.03 in0.8 mm 0.17 in4.3 mm
11:42 AM 45.3°F7.4°C 38.5°F3.6°C 77% 11.4 mph WNW18.3 kmh WNW 25.7 mph41.4 kmh 30.04 in1017.3 mb - 0.03 in0.8 mm 0.17 in4.3 mm
11:37 AM 45.5°F7.5°C 39.0°F3.9°C 78% 8.9 mph NNW14.3 kmh NNW 19.0 mph30.6 kmh 30.04 in1017.3 mb - 0.03 in0.8 mm 0.17 in4.3 mm
11:32 AM 45.9°F7.7°C 38.7°F3.7°C 76% 9.8 mph W15.8 kmh W 25.3 mph40.7 kmh 30.04 in1017.3 mb - 0.03 in0.8 mm 0.17 in4.3 mm
11:27 AM 46.2°F7.9°C 40.5°F4.7°C 80% 11.4 mph W18.3 kmh W 21.5 mph34.6 kmh 30.04 in1017.3 mb - 0.07 in1.8 mm 0.13 in3.3 mm
11:22 AM 46.2°F7.9°C 40.1°F4.5°C 79% 7.4 mph WSW11.9 kmh WSW 14.3 mph23.0 kmh 30.04 in1017.3 mb - 0.07 in1.8 mm 0.13 in3.3 mm
11:17 AM 46.6°F8.1°C 41.0°F5.0°C 81% 5.1 mph W8.2 kmh W 13.9 mph22.4 kmh 30.04 in1017.3 mb - 0.07 in1.8 mm 0.13 in3.3 mm
11:12 AM 46.8°F8.2°C 40.3°F4.6°C 78% 12.5 mph WSW20.1 kmh WSW 31.5 mph50.7 kmh 30.04 in1017.3 mb - 0.07 in1.8 mm 0.13 in3.3 mm
11:07 AM 46.8°F8.2°C 39.9°F4.4°C 77% 11.0 mph WSW17.7 kmh WSW 27.1 mph43.6 kmh 30.07 in1018.3 mb - 0.07 in1.8 mm 0.13 in3.3 mm
11:02 AM 46.9°F8.3°C 39.0°F3.9°C 74% 9.4 mph W15.1 kmh W 23.0 mph37.0 kmh 30.07 in1018.3 mb - 0.07 in1.8 mm 0.13 in3.3 mm
10:57 AM 47.3°F8.5°C 40.1°F4.5°C 76% 10.7 mph W17.2 kmh W 22.6 mph36.4 kmh 30.07 in1018.3 mb - 0.07 in1.8 mm 0.13 in3.3 mm
10:52 AM 47.1°F8.4°C 39.9°F4.4°C 76% 8.5 mph WNW13.7 kmh WNW 23.3 mph37.5 kmh 30.04 in1017.3 mb - 0.07 in1.8 mm 0.13 in3.3 mm
10:47 AM 46.9°F8.3°C 41.2°F5.1°C 80% 5.6 mph WNW9.0 kmh WNW 19.7 mph31.7 kmh 30.04 in1017.3 mb - 0.07 in1.8 mm 0.13 in3.3 mm
10:42 AM 46.4°F8.0°C 41.5°F5.3°C 83% 7.4 mph WNW11.9 kmh WNW 15.4 mph24.8 kmh 30.04 in1017.3 mb - 0.07 in1.8 mm 0.13 in3.3 mm
10:37 AM 46.2°F7.9°C 41.7°F5.4°C 84% 8.1 mph NW13.0 kmh NW 20.1 mph32.3 kmh 30.04 in1017.3 mb - 0.07 in1.8 mm 0.13 in3.3 mm
10:32 AM 46.0°F7.8°C 41.5°F5.3°C 84% 8.3 mph NW13.4 kmh NW 19.5 mph31.4 kmh 30.04 in1017.3 mb - 0.07 in1.8 mm 0.08 in2.0 mm
10:27 AM 46.0°F7.8°C 40.8°F4.9°C 82% 6.7 mph W10.8 kmh W 21.9 mph35.2 kmh 30.04 in1017.3 mb - 0.00 in0.0 mm 0.08 in2.0 mm
10:22 AM 46.0°F7.8°C 40.5°F4.7°C 81% 10.1 mph NNW16.3 kmh NNW 22.6 mph36.4 kmh 30.04 in1017.3 mb - 0.00 in0.0 mm 0.08 in2.0 mm
10:17 AM 46.0°F7.8°C 39.6°F4.2°C 78% 14.1 mph NW22.7 kmh NW 30.6 mph49.2 kmh 30.04 in1017.3 mb - 0.00 in0.0 mm 0.08 in2.0 mm
10:12 AM 46.2°F7.9°C 39.0°F3.9°C 76% 18.8 mph WSW30.3 kmh WSW 32.0 mph51.5 kmh 30.04 in1017.3 mb - 0.00 in0.0 mm 0.08 in2.0 mm
10:07 AM 46.6°F8.1°C 38.1°F3.4°C 72% 14.3 mph W23.0 kmh W 32.9 mph52.9 kmh 30.01 in1016.3 mb - 0.00 in0.0 mm 0.04 in1.0 mm
10:02 AM 47.7°F8.7°C 38.7°F3.7°C 71% 13.2 mph W21.2 kmh W 23.5 mph37.8 kmh 30.01 in1016.3 mb - 0.00 in0.0 mm 0.04 in1.0 mm
09:57 AM 47.7°F8.7°C 38.7°F3.7°C 71% 13.6 mph W21.9 kmh W 29.1 mph46.8 kmh 30.01 in1016.3 mb - 0.00 in0.0 mm 0.04 in1.0 mm
09:52 AM 47.3°F8.5°C 38.8°F3.8°C 72% 14.1 mph WNW22.7 kmh WNW 31.8 mph51.2 kmh 30.01 in1016.3 mb - 0.00 in0.0 mm 0.04 in1.0 mm
09:47 AM 47.7°F8.7°C 37.9°F3.3°C 69% 9.6 mph WSW15.4 kmh WSW 23.3 mph37.5 kmh 30.01 in1016.3 mb - 0.00 in0.0 mm 0.04 in1.0 mm
09:42 AM 48.2°F9.0°C 37.8°F3.2°C 67% 9.6 mph WNW15.4 kmh WNW 20.8 mph33.5 kmh 30.01 in1016.3 mb - 0.00 in0.0 mm 0.04 in1.0 mm
09:37 AM 48.2°F9.0°C 38.1°F3.4°C 68% 15.2 mph W24.5 kmh W 33.6 mph54.1 kmh 30.01 in1016.3 mb - 0.00 in0.0 mm 0.04 in1.0 mm
09:32 AM 48.6°F9.2°C 37.4°F3.0°C 65% 13.2 mph W21.2 kmh W 27.7 mph44.6 kmh 30.01 in1016.3 mb - 0.00 in0.0 mm 0.04 in1.0 mm
09:27 AM 48.7°F9.3°C 37.2°F2.9°C 64% 11.9 mph W19.2 kmh W 26.2 mph42.2 kmh 30.01 in1016.3 mb - 0.00 in0.0 mm 0.04 in1.0 mm
09:22 AM 48.9°F9.4°C 36.5°F2.5°C 62% 11.2 mph W18.0 kmh W 21.3 mph34.3 kmh 29.99 in1015.6 mb - 0.00 in0.0 mm 0.04 in1.0 mm
09:17 AM 48.7°F9.3°C 36.7°F2.6°C 63% 12.1 mph W19.5 kmh W 26.2 mph42.2 kmh 29.99 in1015.6 mb - 0.00 in0.0 mm 0.04 in1.0 mm
09:12 AM 48.7°F9.3°C 36.3°F2.4°C 62% 13.2 mph SW21.2 kmh SW 22.6 mph36.4 kmh 29.99 in1015.6 mb - 0.00 in0.0 mm 0.04 in1.0 mm
09:07 AM 48.7°F9.3°C 36.7°F2.6°C 63% 14.1 mph WSW22.7 kmh WSW 26.6 mph42.8 kmh 30.01 in1016.3 mb - 0.00 in0.0 mm 0.04 in1.0 mm
09:02 AM 48.7°F9.3°C 36.3°F2.4°C 62% 10.7 mph WSW17.2 kmh WSW 22.1 mph35.6 kmh 30.01 in1016.3 mb - 0.00 in0.0 mm 0.04 in1.0 mm
08:57 AM 48.7°F9.3°C 35.1°F1.7°C 59% 10.7 mph SW17.2 kmh SW 22.4 mph36.0 kmh 30.01 in1016.3 mb - 0.00 in0.0 mm 0.04 in1.0 mm
08:52 AM 48.7°F9.3°C 35.4°F1.9°C 60% 10.5 mph WNW16.9 kmh WNW 19.9 mph32.0 kmh 29.99 in1015.6 mb - 0.00 in0.0 mm 0.04 in1.0 mm
08:47 AM 48.6°F9.2°C 34.9°F1.6°C 59% 11.0 mph W17.7 kmh W 23.9 mph38.5 kmh 29.99 in1015.6 mb - 0.00 in0.0 mm 0.04 in1.0 mm
08:42 AM 48.6°F9.2°C 34.9°F1.6°C 59% 10.3 mph WNW16.6 kmh WNW 24.6 mph39.6 kmh 29.99 in1015.6 mb - 0.00 in0.0 mm 0.04 in1.0 mm
08:37 AM 48.6°F9.2°C 34.9°F1.6°C 59% 9.6 mph SW15.4 kmh SW 26.4 mph42.5 kmh 29.99 in1015.6 mb - 0.00 in0.0 mm 0.04 in1.0 mm
08:32 AM 48.6°F9.2°C 34.9°F1.6°C 59% 11.2 mph WSW18.0 kmh WSW 22.4 mph36.0 kmh 29.99 in1015.6 mb - 0.00 in0.0 mm 0.04 in1.0 mm
08:27 AM 48.4°F9.1°C 35.6°F2.0°C 61% 12.5 mph WSW20.1 kmh WSW 28.2 mph45.4 kmh 29.99 in1015.6 mb - 0.00 in0.0 mm 0.04 in1.0 mm
08:22 AM 48.4°F9.1°C 35.2°F1.8°C 60% 8.3 mph W13.4 kmh W 23.3 mph37.5 kmh 29.96 in1014.6 mb - 0.00 in0.0 mm 0.04 in1.0 mm
08:17 AM 48.4°F9.1°C 35.6°F2.0°C 61% 13.0 mph SW20.9 kmh SW 28.2 mph45.4 kmh 29.96 in1014.6 mb - 0.00 in0.0 mm 0.04 in1.0 mm
08:12 AM 48.2°F9.0°C 35.8°F2.1°C 62% 12.3 mph WSW19.8 kmh WSW 30.4 mph48.9 kmh 29.96 in1014.6 mb - 0.00 in0.0 mm 0.04 in1.0 mm
08:07 AM 48.2°F9.0°C 35.8°F2.1°C 62% 13.2 mph W21.2 kmh W 28.2 mph45.4 kmh 29.99 in1015.6 mb - 0.00 in0.0 mm 0.04 in1.0 mm
08:02 AM 48.0°F8.9°C 36.9°F2.7°C 65% 11.9 mph WSW19.2 kmh WSW 24.2 mph38.9 kmh 29.99 in1015.6 mb - 0.00 in0.0 mm 0.04 in1.0 mm
07:57 AM 48.0°F8.9°C 37.2°F2.9°C 66% 11.0 mph WSW17.7 kmh WSW 22.8 mph36.7 kmh 29.99 in1015.6 mb - 0.00 in0.0 mm 0.04 in1.0 mm
07:52 AM 48.0°F8.9°C 37.2°F2.9°C 66% 12.1 mph W19.5 kmh W 24.6 mph39.6 kmh 29.99 in1015.6 mb - 0.00 in0.0 mm 0.04 in1.0 mm
07:47 AM 48.0°F8.9°C 37.2°F2.9°C 66% 16.6 mph WSW26.7 kmh WSW 31.5 mph50.7 kmh 29.99 in1015.6 mb - 0.00 in0.0 mm 0.04 in1.0 mm
07:42 AM 48.0°F8.9°C 37.6°F3.1°C 67% 15.0 mph WSW24.1 kmh WSW 37.6 mph60.5 kmh 29.99 in1015.6 mb - 0.00 in0.0 mm 0.04 in1.0 mm
07:37 AM 48.0°F8.9°C 37.2°F2.9°C 66% 16.8 mph W27.0 kmh W 35.3 mph56.8 kmh 29.99 in1015.6 mb - 0.00 in0.0 mm 0.04 in1.0 mm
07:32 AM 47.8°F8.8°C 37.8°F3.2°C 68% 11.2 mph SW18.0 kmh SW 22.6 mph36.4 kmh 29.99 in1015.6 mb - 0.00 in0.0 mm 0.04 in1.0 mm
07:27 AM 47.7°F8.7°C 37.9°F3.3°C 69% 14.1 mph WSW22.7 kmh WSW 30.2 mph48.6 kmh 29.99 in1015.6 mb - 0.00 in0.0 mm 0.04 in1.0 mm
07:22 AM 47.7°F8.7°C 37.9°F3.3°C 69% 12.5 mph WSW20.1 kmh WSW 28.2 mph45.4 kmh 29.99 in1015.6 mb - 0.00 in0.0 mm 0.04 in1.0 mm
07:17 AM 47.8°F8.8°C 37.8°F3.2°C 68% 9.6 mph W15.4 kmh W 20.8 mph33.5 kmh 29.99 in1015.6 mb - 0.00 in0.0 mm 0.04 in1.0 mm
07:12 AM 47.5°F8.6°C 38.5°F3.6°C 71% 10.1 mph SW16.3 kmh SW 20.6 mph33.2 kmh 29.99 in1015.6 mb - 0.00 in0.0 mm 0.04 in1.0 mm
07:07 AM 47.3°F8.5°C 39.0°F3.9°C 73% 7.2 mph WSW11.6 kmh WSW 17.9 mph28.8 kmh 29.99 in1015.6 mb - 0.00 in0.0 mm 0.04 in1.0 mm
07:02 AM 47.3°F8.5°C 39.0°F3.9°C 73% 7.8 mph W12.6 kmh W 13.6 mph21.9 kmh 29.99 in1015.6 mb - 0.00 in0.0 mm 0.04 in1.0 mm
06:57 AM 47.3°F8.5°C 39.4°F4.1°C 74% 6.9 mph WSW11.1 kmh WSW 19.7 mph31.7 kmh 29.99 in1015.6 mb - 0.00 in0.0 mm 0.04 in1.0 mm
06:52 AM 47.5°F8.6°C 38.8°F3.8°C 72% 6.9 mph W11.1 kmh W 14.8 mph23.8 kmh 29.99 in1015.6 mb - 0.00 in0.0 mm 0.04 in1.0 mm
06:47 AM 47.7°F8.7°C 38.7°F3.7°C 71% 7.8 mph WSW12.6 kmh WSW 14.5 mph23.3 kmh 29.99 in1015.6 mb - 0.00 in0.0 mm 0.04 in1.0 mm
06:42 AM 47.7°F8.7°C 38.7°F3.7°C 71% 6.9 mph SW11.1 kmh SW 15.2 mph24.5 kmh 29.99 in1015.6 mb - 0.00 in0.0 mm 0.04 in1.0 mm
06:37 AM 47.8°F8.8°C 38.1°F3.4°C 69% 6.9 mph W11.1 kmh W 13.4 mph21.6 kmh 29.99 in1015.6 mb - 0.00 in0.0 mm 0.04 in1.0 mm
06:32 AM 47.7°F8.7°C 37.9°F3.3°C 69% 6.5 mph SW10.5 kmh SW 15.9 mph25.6 kmh 29.99 in1015.6 mb - 0.00 in0.0 mm 0.04 in1.0 mm
06:27 AM 47.7°F8.7°C 37.9°F3.3°C 69% 5.8 mph W9.3 kmh W 13.2 mph21.2 kmh 29.99 in1015.6 mb - 0.00 in0.0 mm 0.04 in1.0 mm
06:22 AM 47.5°F8.6°C 38.1°F3.4°C 70% 5.4 mph W8.7 kmh W 13.4 mph21.6 kmh 29.96 in1014.6 mb - 0.00 in0.0 mm 0.04 in1.0 mm
06:17 AM 47.5°F8.6°C 38.5°F3.6°C 71% 6.7 mph W10.8 kmh W 13.0 mph20.9 kmh 29.96 in1014.6 mb - 0.00 in0.0 mm 0.04 in1.0 mm
06:12 AM 47.5°F8.6°C 38.5°F3.6°C 71% 6.3 mph W10.1 kmh W 13.4 mph21.6 kmh 29.96 in1014.6 mb - 0.00 in0.0 mm 0.04 in1.0 mm
06:07 AM 47.3°F8.5°C 38.8°F3.8°C 72% 3.4 mph WNW5.5 kmh WNW 12.5 mph20.1 kmh 29.99 in1015.6 mb - 0.00 in0.0 mm 0.04 in1.0 mm
06:02 AM 47.3°F8.5°C 39.0°F3.9°C 73% 4.9 mph W7.9 kmh W 13.0 mph20.9 kmh 29.99 in1015.6 mb - 0.00 in0.0 mm 0.04 in1.0 mm
05:57 AM 47.5°F8.6°C 38.8°F3.8°C 72% 4.3 mph WSW6.9 kmh WSW 11.9 mph19.2 kmh 29.99 in1015.6 mb - 0.00 in0.0 mm 0.04 in1.0 mm
05:52 AM 47.5°F8.6°C 38.8°F3.8°C 72% 5.1 mph W8.2 kmh W 12.1 mph19.5 kmh 29.99 in1015.6 mb - 0.00 in0.0 mm 0.04 in1.0 mm
05:47 AM 47.3°F8.5°C 39.0°F3.9°C 73% 6.9 mph NW11.1 kmh NW 15.2 mph24.5 kmh 29.99 in1015.6 mb - 0.00 in0.0 mm 0.04 in1.0 mm
05:42 AM 47.3°F8.5°C 39.4°F4.1°C 74% 8.5 mph W13.7 kmh W 16.3 mph26.2 kmh 29.99 in1015.6 mb - 0.00 in0.0 mm 0.04 in1.0 mm
05:37 AM 47.3°F8.5°C 39.4°F4.1°C 74% 6.9 mph W11.1 kmh W 14.1 mph22.7 kmh 29.99 in1015.6 mb - 0.00 in0.0 mm 0.04 in1.0 mm
05:32 AM 47.1°F8.4°C 39.2°F4.0°C 74% 6.5 mph W10.5 kmh W 14.8 mph23.8 kmh 29.99 in1015.6 mb - 0.00 in0.0 mm 0.04 in1.0 mm
05:27 AM 46.9°F8.3°C 39.4°F4.1°C 75% 7.4 mph W11.9 kmh W 13.4 mph21.6 kmh 29.99 in1015.6 mb - 0.00 in0.0 mm 0.04 in1.0 mm
05:22 AM 46.9°F8.3°C 39.7°F4.3°C 76% 8.5 mph W13.7 kmh W 14.8 mph23.8 kmh 29.99 in1015.6 mb - 0.00 in0.0 mm 0.04 in1.0 mm
05:17 AM 46.9°F8.3°C 39.7°F4.3°C 76% 10.5 mph WSW16.9 kmh WSW 20.1 mph32.3 kmh 29.99 in1015.6 mb - 0.00 in0.0 mm 0.04 in1.0 mm
05:12 AM 47.1°F8.4°C 39.9°F4.4°C 76% 4.7 mph W7.6 kmh W 11.6 mph18.7 kmh 29.99 in1015.6 mb - 0.00 in0.0 mm 0.04 in1.0 mm
05:07 AM 46.8°F8.2°C 40.6°F4.8°C 79% 7.8 mph W12.6 kmh W 16.8 mph27.0 kmh 29.99 in1015.6 mb - 0.00 in0.0 mm 0.04 in1.0 mm
05:02 AM 46.8°F8.2°C 40.6°F4.8°C 79% 8.1 mph WNW13.0 kmh WNW 17.7 mph28.5 kmh 29.99 in1015.6 mb - 0.00 in0.0 mm 0.04 in1.0 mm
04:57 AM 46.8°F8.2°C 40.6°F4.8°C 79% 2.5 mph NW4.0 kmh NW 10.3 mph16.6 kmh 29.99 in1015.6 mb - 0.00 in0.0 mm 0.04 in1.0 mm
04:52 AM 46.8°F8.2°C 40.6°F4.8°C 79% 4.5 mph NW7.2 kmh NW 9.6 mph15.4 kmh 29.99 in1015.6 mb - 0.00 in0.0 mm 0.00 in0.0 mm
04:47 AM 47.1°F8.4°C 39.9°F4.4°C 76% 4.3 mph SW6.9 kmh SW 9.2 mph14.8 kmh 29.99 in1015.6 mb - 0.00 in0.0 mm 0.00 in0.0 mm
04:42 AM 47.3°F8.5°C 39.7°F4.3°C 75% 7.4 mph W11.9 kmh W 13.9 mph22.4 kmh 29.99 in1015.6 mb - 0.00 in0.0 mm 0.00 in0.0 mm
04:37 AM 47.5°F8.6°C 39.6°F4.2°C 74% 7.4 mph SW11.9 kmh SW 12.3 mph19.8 kmh 29.96 in1014.6 mb - 0.00 in0.0 mm 0.00 in0.0 mm
04:32 AM 47.7°F8.7°C 39.0°F3.9°C 72% 7.4 mph WSW11.9 kmh WSW 14.1 mph22.7 kmh 29.96 in1014.6 mb - 0.00 in0.0 mm 0.00 in0.0 mm
04:27 AM 47.8°F8.8°C 38.8°F3.8°C 71% 7.8 mph W12.6 kmh W 15.2 mph24.5 kmh 29.96 in1014.6 mb - 0.00 in0.0 mm 0.00 in0.0 mm
04:22 AM 47.8°F8.8°C 38.8°F3.8°C 71% 7.8 mph SW12.6 kmh SW 15.4 mph24.8 kmh 29.99 in1015.6 mb - 0.00 in0.0 mm 0.00 in0.0 mm
04:17 AM 47.7°F8.7°C 39.0°F3.9°C 72% 9.4 mph WSW15.1 kmh WSW 19.9 mph32.0 kmh 29.99 in1015.6 mb - 0.00 in0.0 mm 0.00 in0.0 mm
04:12 AM 47.7°F8.7°C 39.4°F4.1°C 73% 9.4 mph WNW15.1 kmh WNW 17.7 mph28.5 kmh 29.99 in1015.6 mb - 0.00 in0.0 mm 0.00 in0.0 mm
04:07 AM 47.7°F8.7°C 40.1°F4.5°C 75% 8.5 mph W13.7 kmh W 17.0 mph27.4 kmh 29.99 in1015.6 mb - 0.00 in0.0 mm 0.00 in0.0 mm
04:02 AM 47.3°F8.5°C 40.8°F4.9°C 78% 6.7 mph SW10.8 kmh SW 14.8 mph23.8 kmh 29.99 in1015.6 mb - 0.00 in0.0 mm 0.00 in0.0 mm
03:57 AM 47.1°F8.4°C 41.5°F5.3°C 81% 6.0 mph SW9.7 kmh SW 11.4 mph18.3 kmh 29.99 in1015.6 mb - 0.00 in0.0 mm 0.00 in0.0 mm
03:52 AM 47.1°F8.4°C 42.6°F5.9°C 84% 7.4 mph WSW11.9 kmh WSW 13.4 mph21.6 kmh 30.01 in1016.3 mb - 0.00 in0.0 mm 0.00 in0.0 mm
03:47 AM 47.1°F8.4°C 42.6°F5.9°C 84% 8.7 mph W14.0 kmh W 14.8 mph23.8 kmh 30.01 in1016.3 mb - 0.00 in0.0 mm 0.00 in0.0 mm
03:42 AM 47.1°F8.4°C 42.8°F6.0°C 85% 10.3 mph W16.6 kmh W 15.9 mph25.6 kmh 30.01 in1016.3 mb - 0.00 in0.0 mm 0.00 in0.0 mm
03:37 AM 47.1°F8.4°C 42.8°F6.0°C 85% 8.5 mph WSW13.7 kmh WSW 18.6 mph29.9 kmh 30.01 in1016.3 mb - 0.00 in0.0 mm 0.00 in0.0 mm
03:32 AM 47.1°F8.4°C 42.8°F6.0°C 85% 7.8 mph WSW12.6 kmh WSW 16.8 mph27.0 kmh 30.01 in1016.3 mb - 0.00 in0.0 mm 0.00 in0.0 mm
03:27 AM 47.1°F8.4°C 42.8°F6.0°C 85% 9.4 mph W15.1 kmh W 20.8 mph33.5 kmh 30.01 in1016.3 mb - 0.00 in0.0 mm 0.00 in0.0 mm
03:22 AM 47.1°F8.4°C 42.3°F5.7°C 83% 11.9 mph NW19.2 kmh NW 21.0 mph33.8 kmh 30.01 in1016.3 mb - 0.00 in0.0 mm 0.00 in0.0 mm
03:17 AM 47.3°F8.5°C 42.1°F5.6°C 82% 9.8 mph WNW15.8 kmh WNW 17.0 mph27.4 kmh 30.01 in1016.3 mb - 0.00 in0.0 mm 0.00 in0.0 mm
03:12 AM 47.3°F8.5°C 41.7°F5.4°C 81% 12.5 mph SSW20.1 kmh SSW 21.7 mph34.9 kmh 30.01 in1016.3 mb - 0.00 in0.0 mm 0.00 in0.0 mm
03:07 AM 47.7°F8.7°C 41.2°F5.1°C 78% 9.4 mph WSW15.1 kmh WSW 19.2 mph30.9 kmh 30.04 in1017.3 mb - 0.00 in0.0 mm 0.00 in0.0 mm
03:02 AM 47.8°F8.8°C 40.6°F4.8°C 76% 5.8 mph WSW9.3 kmh WSW 14.3 mph23.0 kmh 30.04 in1017.3 mb - 0.00 in0.0 mm 0.00 in0.0 mm
02:57 AM 48.4°F9.1°C 40.1°F4.5°C 73% 7.6 mph WSW12.2 kmh WSW 17.0 mph27.4 kmh 30.04 in1017.3 mb - 0.00 in0.0 mm 0.00 in0.0 mm
02:52 AM 48.6°F9.2°C 39.9°F4.4°C 72% 9.2 mph NW14.8 kmh NW 18.6 mph29.9 kmh 30.04 in1017.3 mb - 0.00 in0.0 mm 0.00 in0.0 mm
02:47 AM 48.7°F9.3°C 39.4°F4.1°C 70% 10.3 mph NW16.6 kmh NW 22.6 mph36.4 kmh 30.04 in1017.3 mb - 0.00 in0.0 mm 0.00 in0.0 mm
02:42 AM 49.1°F9.5°C 39.0°F3.9°C 68% 14.8 mph W23.8 kmh W 27.7 mph44.6 kmh 30.04 in1017.3 mb - 0.00 in0.0 mm 0.00 in0.0 mm
02:37 AM 49.3°F9.6°C 38.1°F3.4°C 65% 15.7 mph W25.3 kmh W 28.2 mph45.4 kmh 30.04 in1017.3 mb - 0.00 in0.0 mm 0.00 in0.0 mm
02:32 AM 49.5°F9.7°C 38.1°F3.4°C 65% 9.8 mph W15.8 kmh W 20.8 mph33.5 kmh 30.04 in1017.3 mb - 0.00 in0.0 mm 0.00 in0.0 mm
02:27 AM 49.6°F9.8°C 37.6°F3.1°C 63% 10.3 mph W16.6 kmh W 25.1 mph40.4 kmh 30.04 in1017.3 mb - 0.00 in0.0 mm 0.00 in0.0 mm
02:22 AM 49.8°F9.9°C 37.4°F3.0°C 62% 10.1 mph W16.3 kmh W 19.7 mph31.7 kmh 30.04 in1017.3 mb - 0.00 in0.0 mm 0.00 in0.0 mm
02:17 AM 49.8°F9.9°C 36.9°F2.7°C 61% 11.0 mph WSW17.7 kmh WSW 21.5 mph34.6 kmh 30.04 in1017.3 mb - 0.00 in0.0 mm 0.00 in0.0 mm
02:12 AM 50.2°F10.1°C 36.5°F2.5°C 59% 9.2 mph W14.8 kmh W 25.9 mph41.7 kmh 30.04 in1017.3 mb - 0.00 in0.0 mm 0.00 in0.0 mm
02:07 AM 50.2°F10.1°C 36.5°F2.5°C 59% 11.2 mph NW18.0 kmh NW 21.5 mph34.6 kmh 30.04 in1017.3 mb - 0.00 in0.0 mm 0.00 in0.0 mm
02:02 AM 50.2°F10.1°C 36.5°F2.5°C 59% 12.3 mph WSW19.8 kmh WSW 26.4 mph42.5 kmh 30.04 in1017.3 mb - 0.00 in0.0 mm 0.00 in0.0 mm
01:57 AM 50.2°F10.1°C 36.5°F2.5°C 59% 9.6 mph WNW15.4 kmh WNW 19.2 mph30.9 kmh 30.04 in1017.3 mb - 0.00 in0.0 mm 0.00 in0.0 mm
01:52 AM 50.4°F10.2°C 35.8°F2.1°C 57% 10.5 mph WNW16.9 kmh WNW 22.8 mph36.7 kmh 30.04 in1017.3 mb - 0.00 in0.0 mm 0.00 in0.0 mm
01:47 AM 50.5°F10.3°C 36.0°F2.2°C 57% 11.2 mph WNW18.0 kmh WNW 21.5 mph34.6 kmh 30.04 in1017.3 mb - 0.00 in0.0 mm 0.00 in0.0 mm
01:42 AM 50.4°F10.2°C 35.8°F2.1°C 57% 10.5 mph WNW16.9 kmh WNW 20.1 mph32.3 kmh 30.04 in1017.3 mb - 0.00 in0.0 mm 0.00 in0.0 mm
01:37 AM 50.4°F10.2°C 35.8°F2.1°C 57% 10.3 mph WSW16.6 kmh WSW 18.8 mph30.3 kmh 30.04 in1017.3 mb - 0.00 in0.0 mm 0.00 in0.0 mm
01:32 AM 50.4°F10.2°C 35.8°F2.1°C 57% 5.8 mph W9.3 kmh W 13.6 mph21.9 kmh 30.04 in1017.3 mb - 0.00 in0.0 mm 0.00 in0.0 mm
01:27 AM 50.2°F10.1°C 35.6°F2.0°C 57% 8.7 mph WSW14.0 kmh WSW 13.9 mph22.4 kmh 30.04 in1017.3 mb - 0.00 in0.0 mm 0.00 in0.0 mm
01:22 AM 50.2°F10.1°C 35.6°F2.0°C 57% 10.3 mph WNW16.6 kmh WNW 17.9 mph28.8 kmh 30.04 in1017.3 mb - 0.00 in0.0 mm 0.00 in0.0 mm
01:17 AM 50.4°F10.2°C 35.2°F1.8°C 56% 9.8 mph W15.8 kmh W 17.4 mph28.0 kmh 30.04 in1017.3 mb - 0.00 in0.0 mm 0.00 in0.0 mm
01:12 AM 50.4°F10.2°C 35.2°F1.8°C 56% 8.3 mph WSW13.4 kmh WSW 14.1 mph22.7 kmh 30.04 in1017.3 mb - 0.00 in0.0 mm 0.00 in0.0 mm
01:07 AM 50.4°F10.2°C 35.2°F1.8°C 56% 9.6 mph W15.4 kmh W 17.9 mph28.8 kmh 30.04 in1017.3 mb - 0.00 in0.0 mm 0.00 in0.0 mm
01:02 AM 50.4°F10.2°C 35.2°F1.8°C 56% 9.8 mph W15.8 kmh W 16.3 mph26.2 kmh 30.04 in1017.3 mb - 0.00 in0.0 mm 0.00 in0.0 mm
12:57 AM 50.5°F10.3°C 35.1°F1.7°C 55% 11.4 mph W18.3 kmh W 20.8 mph33.5 kmh 30.04 in1017.3 mb - 0.00 in0.0 mm 0.00 in0.0 mm
12:52 AM 50.5°F10.3°C 35.1°F1.7°C 55% 13.2 mph WSW21.2 kmh WSW 24.2 mph38.9 kmh 30.01 in1016.3 mb - 0.00 in0.0 mm 0.00 in0.0 mm
12:47 AM 50.5°F10.3°C 34.5°F1.4°C 54% 11.0 mph WSW17.7 kmh WSW 24.8 mph39.9 kmh 30.01 in1016.3 mb - 0.00 in0.0 mm 0.00 in0.0 mm
12:42 AM 50.4°F10.2°C 34.9°F1.6°C 55% 10.3 mph WSW16.6 kmh WSW 20.6 mph33.2 kmh 30.01 in1016.3 mb - 0.00 in0.0 mm 0.00 in0.0 mm
12:37 AM 50.2°F10.1°C 35.6°F2.0°C 57% 6.5 mph W10.5 kmh W 13.2 mph21.2 kmh 30.04 in1017.3 mb - 0.00 in0.0 mm 0.00 in0.0 mm
12:32 AM 50.2°F10.1°C 36.9°F2.7°C 60% 6.5 mph W10.5 kmh W 12.8 mph20.6 kmh 30.04 in1017.3 mb - 0.00 in0.0 mm 0.00 in0.0 mm
12:27 AM 50.2°F10.1°C 37.2°F2.9°C 61% 6.9 mph W11.1 kmh W 13.0 mph20.9 kmh 30.04 in1017.3 mb - 0.00 in0.0 mm 0.00 in0.0 mm
12:22 AM 50.2°F10.1°C 36.9°F2.7°C 60% 8.5 mph WSW13.7 kmh WSW 17.7 mph28.5 kmh 30.04 in1017.3 mb - 0.00 in0.0 mm 0.00 in0.0 mm
12:17 AM 50.4°F10.2°C 36.7°F2.6°C 59% 6.7 mph W10.8 kmh W 14.5 mph23.3 kmh 30.04 in1017.3 mb - 0.00 in0.0 mm 0.00 in0.0 mm
12:12 AM 50.4°F10.2°C 36.7°F2.6°C 59% 7.6 mph WSW12.2 kmh WSW 14.3 mph23.0 kmh 30.04 in1017.3 mb - 0.00 in0.0 mm 0.00 in0.0 mm
12:07 AM 50.5°F10.3°C 36.9°F2.7°C 59% 7.8 mph WSW12.6 kmh WSW 17.7 mph28.5 kmh 30.04 in1017.3 mb - 0.00 in0.0 mm 0.00 in0.0 mm
12:02 AM 50.5°F10.3°C 36.9°F2.7°C 59% 5.1 mph NW8.2 kmh NW 14.3 mph23.0 kmh 30.04 in1017.3 mb - 0.00 in0.0 mm 0.00 in0.0 mm